Spa/La Sauveniere, Belgium
Current Conditions -  °F | °C
As of 7:25 PM on Friday 21 Nov 2014 (Local Time) from EBLB Reporting Station
Broken Clouds Broken Clouds  
Wind Chill:   Ceiling: 900
Heat Index:   Visibility: 6mi
Dew Point:   Wind: 3mph
Humidity: 87%   Direction: 160°SSE
Pressure: 30.06"   Gusts: NA
Location:  50.49°N, 5.89°E
Report Text: EBLB 211825Z AUTO 16003KT 9999 BKN009/// BKN011/// 06/04 Q1018 GRN
Loading
Personal Weather Stations






























Interactive Weather Map New forecast layout! Learn more

10-Day Weather Forecast

Advertisements
Track Severe Weather on mobile